• Join FlightAware (Why Join?)
  • Login
  • US Flag 
05:59AM EDT


 

Airport Tracker/Info


-or-


 

Live Flight TrackerFlight Track Log ✈ N968CD ✈ 13-Jul-2013 ✈ KHXD - KLZU

Flight Track Log - Related Links

Times and Time Zones

All times are in EDT time to prevent confusion due to time zone crossing. See the N968CD flight status page for this flight to view local times or setup timezone preferences in your user account.

Time Position Orientation Groundspeed Altitude Reporting Facility
EDT Latitude Longitude Course Direction KTS MPH feet Rate Location/Type
06:27PM 32.3937 -80.9411 310° West  Level FlightAware Approximate
06:28PM 32.4174 -80.9844 309° West  Level FlightAware Approximate
06:29PM 32.4469 -81.0274 309° West  Level FlightAware Approximate
06:30PM 32.4765 -81.0705 309° West  Level FlightAware Approximate
06:31PM 32.5060 -81.1136 309° West  Level FlightAware Approximate
06:31PM 32.4844 -81.1564 308° West 140 161 7,900  Level Jacksonville Center
06:32PM 32.5355 -81.1567 309° West  Level FlightAware Approximate
06:32PM 32.5078 -81.1903 309° West 152 175 8,100  Level Jacksonville Center
06:33PM 32.5650 -81.1999 309° West  Level FlightAware Approximate
06:33PM 32.5419 -81.2414 308° West 171 197 8,000  Level Jacksonville Center
06:34PM 32.5945 -81.2431 309° West  Level FlightAware Approximate
06:34PM 32.5761 -81.2900 310° West 182 209 8,000  Level Jacksonville Center
06:35PM 32.6240 -81.2863 309° West  Level FlightAware Approximate
06:35PM 32.6100 -81.3364 311° West 182 209 8,000  Level Jacksonville Center
06:36PM 32.6530 -81.3299 308° West  Level FlightAware Approximate
06:36PM 32.6397 -81.3803 309° West 182 209 8,100  Level Jacksonville Center
06:37PM 32.6758 -81.4317 310° West 187 215 8,100  Level Jacksonville Center
06:38PM 32.7033 -81.4706 310° West 181 208 8,100  Level Jacksonville Center
06:39PM 32.7436 -81.5267 310° West 186 214 8,100  Level Jacksonville Center
06:40PM 32.7756 -81.5733 309° West 186 214 8,100  Level Jacksonville Center
06:41PM 32.8094 -81.6247 308° West 191 220 8,100 -60 Level Jacksonville Center
06:43PM 32.8796 -81.6957 320° Northwest  Level FlightAware Approximate
06:50PM 33.0907 -81.9982 308° West  Level FlightAware Approximate
06:51PM 33.1216 -82.0453 308° West  Level FlightAware Approximate
06:52PM 33.1524 -82.0924 308° West  Level FlightAware Approximate
06:53PM 33.1832 -82.1396 308° West  Level FlightAware Approximate
06:54PM 33.2139 -82.1868 308° West  Level FlightAware Approximate
06:55PM 33.2447 -82.2340 308° West  Level FlightAware Approximate
06:56PM 33.2679 -82.2876 297° West  Level Estimated
06:57PM 33.2912 -82.3411 297° West  Level Estimated
06:58PM 33.3144 -82.3947 297° West  Level Estimated
06:59PM 33.3376 -82.4483 297° West  Level Estimated
07:00PM 33.3608 -82.5020 297° West  Level Estimated
07:01PM 33.3839 -82.5557 297° West  Level Estimated
07:02PM 33.4071 -82.6094 297° West  Level Estimated
07:03PM 33.4302 -82.6631 297° West  Level Estimated
07:04PM 33.4533 -82.7169 297° West  Level Estimated
07:05PM 33.4763 -82.7707 297° West  Level Estimated
07:06PM 33.4994 -82.8245 297° West  Level Estimated
07:07PM 33.5224 -82.8783 297° West  Level Estimated
07:08PM 33.5453 -82.9322 297° West  Level Estimated
07:09PM 33.5683 -82.9861 297° West  Level Estimated
07:10PM 33.5913 -83.0401 297° West  Level Estimated
07:11PM 33.6142 -83.0940 297° West  Level Estimated
07:12PM 33.6371 -83.1480 297° West  Level Estimated
07:13PM 33.6600 -83.2020 297° West  Level Estimated
07:14PM 33.6828 -83.2561 297° West  Level Estimated
07:15PM 33.7056 -83.3102 297° West  Level Estimated
07:16PM 33.7284 -83.3643 297° West  Level Estimated
07:17PM 33.7512 -83.4184 297° West  Level Estimated
07:18PM 33.7739 -83.4726 297° West  Level Estimated
07:19PM 33.7967 -83.5268 297° West  Level Estimated
07:20PM 33.8194 -83.5810 297° West  Level Estimated
07:20PM 33.7167 -83.6667 297° West 187 215 6,900  Level Atlanta TRACON
07:21PM 33.8421 -83.6353 297° West  Level Estimated
07:21PM 33.7333 -83.7167 292° West 180 207 6,400  Level Atlanta TRACON
07:22PM 33.8647 -83.6895 297° West  Level Estimated
07:22PM 33.7500 -83.7667 292° West 183 211 5,900  Level Atlanta TRACON
07:23PM 33.8874 -83.7439 297° West  Level Estimated
07:24PM 33.9100 -83.7982 297° West  Level Estimated
07:24PM 33.7833 -83.8833 289° West 176 203 4,800  Level Atlanta TRACON
07:25PM 33.9326 -83.8526 297° West  Level Estimated
07:25PM 33.8000 -83.9333 292° West 178 205 4,200  Level Atlanta TRACON
07:26PM 33.9551 -83.9070 297° West  Level Estimated
07:26PM 33.8167 -84.0000 287° West 164 189 4,000  Level Atlanta TRACON
07:27PM 33.8167 -84.0500 270° West 157 181 4,100 -300 Climbing Atlanta TRACON
07:29PM 33.9000 -84.0833 342° North 172 198 3,200 -420 Descending Atlanta TRACON
07:30PM 33.9333 -84.0667 23° Northeast 158 182 2,900 -540 Descending Atlanta TRACON
07:31PM 33.9500 -84.0333 59° Northeast 124 143 2,200 -600 Descending Atlanta TRACON
07:32PM 33.9667 -84.0000 59° Northeast 96 110 1,700 -540 Descending Atlanta TRACON
07:34PM 33.9781 -83.9624 90° East  Level Estimated
07:41PM 33.9781 -83.9624 90° East  Level Estimated
07:42PM 33.9781 -83.9624 90° East  Level Estimated